sensor_id;sensor_type;location;lat;lon;timestamp;noise_LAeq;noise_LA_min;noise_LA_max;noise_LA01;noise_LA95
74260;Laerm;62630;55.874;37.516;2023-05-21T00:02:03;60.63;47.51;71.91;;
74260;Laerm;62630;55.874;37.516;2023-05-21T00:04:29;59.27;47.10;72.54;;
74260;Laerm;62630;55.874;37.516;2023-05-21T00:06:58;63.29;46.14;79.82;;
74260;Laerm;62630;55.874;37.516;2023-05-21T00:09:24;50.96;45.75;60.34;;
74260;Laerm;62630;55.874;37.516;2023-05-21T00:11:49;57.28;47.10;70.48;;
74260;Laerm;62630;55.874;37.516;2023-05-21T00:14:15;53.12;46.30;64.88;;
74260;Laerm;62630;55.874;37.516;2023-05-21T00:16:40;55.13;46.70;67.25;;
74260;Laerm;62630;55.874;37.516;2023-05-21T00:19:06;56.60;46.74;69.15;;
74260;Laerm;62630;55.874;37.516;2023-05-21T00:21:32;56.03;46.37;69.46;;
74260;Laerm;62630;55.874;37.516;2023-05-21T00:23:58;50.87;46.00;66.96;;
74260;Laerm;62630;55.874;37.516;2023-05-21T00:26:23;50.22;45.71;58.90;;
74260;Laerm;62630;55.874;37.516;2023-05-21T00:28:49;58.83;46.79;72.03;;
74260;Laerm;62630;55.874;37.516;2023-05-21T00:31:15;56.81;46.47;67.21;;
74260;Laerm;62630;55.874;37.516;2023-05-21T00:33:41;55.66;46.30;66.78;;
74260;Laerm;62630;55.874;37.516;2023-05-21T00:36:07;49.86;46.00;55.70;;
74260;Laerm;62630;55.874;37.516;2023-05-21T00:38:33;54.84;46.11;68.21;;
74260;Laerm;62630;55.874;37.516;2023-05-21T00:41:02;49.81;45.65;67.26;;
74260;Laerm;62630;55.874;37.516;2023-05-21T00:43:27;56.85;45.91;71.17;;
74260;Laerm;62630;55.874;37.516;2023-05-21T00:45:53;53.80;46.41;62.89;;
74260;Laerm;62630;55.874;37.516;2023-05-21T00:48:21;57.37;45.09;68.19;;
74260;Laerm;62630;55.874;37.516;2023-05-21T00:50:47;53.65;46.07;65.44;;
74260;Laerm;62630;55.874;37.516;2023-05-21T00:53:14;49.53;45.05;55.22;;
74260;Laerm;62630;55.874;37.516;2023-05-21T00:55:42;55.67;45.87;67.66;;
74260;Laerm;62630;55.874;37.516;2023-05-21T00:58:08;58.68;46.03;70.38;;
74260;Laerm;62630;55.874;37.516;2023-05-21T01:00:34;55.57;45.37;66.41;;
74260;Laerm;62630;55.874;37.516;2023-05-21T01:03:03;56.67;45.30;68.50;;
74260;Laerm;62630;55.874;37.516;2023-05-21T01:05:30;54.61;45.62;66.79;;
74260;Laerm;62630;55.874;37.516;2023-05-21T01:07:57;56.75;45.93;68.14;;
74260;Laerm;62630;55.874;37.516;2023-05-21T01:10:24;56.50;45.69;70.83;;
74260;Laerm;62630;55.874;37.516;2023-05-21T01:12:50;54.72;45.53;70.30;;
74260;Laerm;62630;55.874;37.516;2023-05-21T01:15:16;58.40;45.09;68.84;;
74260;Laerm;62630;55.874;37.516;2023-05-21T01:17:42;54.87;46.44;65.81;;
74260;Laerm;62630;55.874;37.516;2023-05-21T01:20:10;55.29;45.32;67.15;;
74260;Laerm;62630;55.874;37.516;2023-05-21T01:22:50;52.84;45.60;66.75;;
74260;Laerm;62630;55.874;37.516;2023-05-21T01:25:16;56.45;45.74;71.12;;
74260;Laerm;62630;55.874;37.516;2023-05-21T01:27:42;52.80;45.69;61.66;;
74260;Laerm;62630;55.874;37.516;2023-05-21T01:30:08;52.56;46.24;62.62;;
74260;Laerm;62630;55.874;37.516;2023-05-21T01:32:43;57.57;47.40;67.30;;
74260;Laerm;62630;55.874;37.516;2023-05-21T01:35:16;55.71;46.23;67.83;;
74260;Laerm;62630;55.874;37.516;2023-05-21T01:37:54;52.69;43.95;68.50;;
74260;Laerm;62630;55.874;37.516;2023-05-21T01:40:33;51.89;45.06;62.10;;
74260;Laerm;62630;55.874;37.516;2023-05-21T01:43:01;55.22;45.79;65.70;;
74260;Laerm;62630;55.874;37.516;2023-05-21T01:45:28;60.32;46.98;75.87;;
74260;Laerm;62630;55.874;37.516;2023-05-21T01:47:56;58.71;45.36;69.93;;
74260;Laerm;62630;55.874;37.516;2023-05-21T01:50:23;55.19;44.87;70.15;;
74260;Laerm;62630;55.874;37.516;2023-05-21T01:52:51;55.48;44.57;67.28;;
74260;Laerm;62630;55.874;37.516;2023-05-21T01:55:18;57.73;44.39;70.30;;
74260;Laerm;62630;55.874;37.516;2023-05-21T01:57:50;61.00;48.13;73.23;;
74260;Laerm;62630;55.874;37.516;2023-05-21T02:00:17;57.27;45.55;71.81;;
74260;Laerm;62630;55.874;37.516;2023-05-21T02:02:43;60.97;45.33;75.70;;
74260;Laerm;62630;55.874;37.516;2023-05-21T02:05:09;54.71;45.90;67.88;;
74260;Laerm;62630;55.874;37.516;2023-05-21T02:07:34;57.43;46.03;68.07;;
74260;Laerm;62630;55.874;37.516;2023-05-21T02:10:02;58.94;45.84;69.36;;
74260;Laerm;62630;55.874;37.516;2023-05-21T02:12:28;58.32;46.08;78.77;;
74260;Laerm;62630;55.874;37.516;2023-05-21T02:14:54;63.87;45.43;85.66;;
74260;Laerm;62630;55.874;37.516;2023-05-21T02:17:21;58.04;45.36;72.20;;
74260;Laerm;62630;55.874;37.516;2023-05-21T02:19:48;51.08;45.17;59.51;;
74260;Laerm;62630;55.874;37.516;2023-05-21T02:22:14;53.48;45.09;68.32;;
74260;Laerm;62630;55.874;37.516;2023-05-21T02:24:43;52.08;44.38;62.04;;
74260;Laerm;62630;55.874;37.516;2023-05-21T02:27:08;58.85;47.00;74.97;;
74260;Laerm;62630;55.874;37.516;2023-05-21T02:29:38;52.82;44.98;65.34;;
74260;Laerm;62630;55.874;37.516;2023-05-21T02:32:04;51.29;45.76;59.38;;
74260;Laerm;62630;55.874;37.516;2023-05-21T02:34:29;59.41;45.84;71.90;;
74260;Laerm;62630;55.874;37.516;2023-05-21T02:36:56;61.06;47.47;72.85;;
74260;Laerm;62630;55.874;37.516;2023-05-21T02:39:23;62.76;45.46;75.25;;
74260;Laerm;62630;55.874;37.516;2023-05-21T02:41:48;61.30;45.01;84.85;;
74260;Laerm;62630;55.874;37.516;2023-05-21T02:44:14;60.39;48.45;72.60;;
74260;Laerm;62630;55.874;37.516;2023-05-21T02:46:39;59.75;46.22;67.94;;
74260;Laerm;62630;55.874;37.516;2023-05-21T02:49:05;58.78;45.29;72.39;;
74260;Laerm;62630;55.874;37.516;2023-05-21T02:51:30;60.24;45.79;71.09;;
74260;Laerm;62630;55.874;37.516;2023-05-21T02:53:56;60.78;46.67;78.80;;
74260;Laerm;62630;55.874;37.516;2023-05-21T02:56:22;61.69;46.19;79.18;;
74260;Laerm;62630;55.874;37.516;2023-05-21T02:58:47;56.23;44.97;68.43;;
74260;Laerm;62630;55.874;37.516;2023-05-21T03:01:13;54.06;43.86;66.32;;
74260;Laerm;62630;55.874;37.516;2023-05-21T03:03:38;60.81;46.51;77.19;;
74260;Laerm;62630;55.874;37.516;2023-05-21T03:06:04;57.09;45.67;68.21;;
74260;Laerm;62630;55.874;37.516;2023-05-21T03:08:30;60.49;46.98;74.03;;
74260;Laerm;62630;55.874;37.516;2023-05-21T03:10:56;54.90;44.48;70.04;;
74260;Laerm;62630;55.874;37.516;2023-05-21T03:13:21;56.75;44.11;66.78;;
74260;Laerm;62630;55.874;37.516;2023-05-21T03:15:47;59.06;45.85;70.70;;
74260;Laerm;62630;55.874;37.516;2023-05-21T03:18:13;53.59;46.15;65.60;;
74260;Laerm;62630;55.874;37.516;2023-05-21T03:20:38;60.54;49.04;70.42;;
74260;Laerm;62630;55.874;37.516;2023-05-21T03:23:08;53.91;44.33;70.19;;
74260;Laerm;62630;55.874;37.516;2023-05-21T03:25:33;60.16;47.90;72.08;;
74260;Laerm;62630;55.874;37.516;2023-05-21T03:28:02;58.62;46.53;69.80;;
74260;Laerm;62630;55.874;37.516;2023-05-21T03:30:27;58.25;46.14;69.88;;
74260;Laerm;62630;55.874;37.516;2023-05-21T03:32:53;55.86;46.06;69.55;;
74260;Laerm;62630;55.874;37.516;2023-05-21T03:35:20;55.12;46.25;69.65;;
74260;Laerm;62630;55.874;37.516;2023-05-21T03:37:46;59.71;47.57;69.34;;
74260;Laerm;62630;55.874;37.516;2023-05-21T03:40:12;60.93;47.92;73.93;;
74260;Laerm;62630;55.874;37.516;2023-05-21T03:42:38;58.78;47.37;69.54;;
74260;Laerm;62630;55.874;37.516;2023-05-21T03:45:11;60.13;46.77;73.87;;
74260;Laerm;62630;55.874;37.516;2023-05-21T03:47:37;57.95;46.36;67.74;;
74260;Laerm;62630;55.874;37.516;2023-05-21T03:50:03;58.16;45.76;79.52;;
74260;Laerm;62630;55.874;37.516;2023-05-21T03:52:30;53.70;46.30;62.85;;
74260;Laerm;62630;55.874;37.516;2023-05-21T03:54:55;61.12;47.70;74.36;;
74260;Laerm;62630;55.874;37.516;2023-05-21T03:57:21;60.54;46.85;71.37;;
74260;Laerm;62630;55.874;37.516;2023-05-21T03:59:46;59.62;45.77;71.01;;
74260;Laerm;62630;55.874;37.516;2023-05-21T04:02:12;61.23;46.98;71.63;;
74260;Laerm;62630;55.874;37.516;2023-05-21T04:04:37;60.39;46.31;75.89;;
74260;Laerm;62630;55.874;37.516;2023-05-21T04:07:03;61.80;45.90;80.49;;
74260;Laerm;62630;55.874;37.516;2023-05-21T04:09:29;52.91;46.06;61.89;;
74260;Laerm;62630;55.874;37.516;2023-05-21T04:11:55;61.93;46.56;73.12;;
74260;Laerm;62630;55.874;37.516;2023-05-21T04:14:21;63.02;45.99;77.60;;
74260;Laerm;62630;55.874;37.516;2023-05-21T04:16:47;57.26;46.89;69.10;;
74260;Laerm;62630;55.874;37.516;2023-05-21T04:19:13;61.74;48.90;72.81;;
74260;Laerm;62630;55.874;37.516;2023-05-21T04:21:39;67.01;51.03;83.02;;
74260;Laerm;62630;55.874;37.516;2023-05-21T04:24:05;62.86;47.64;74.00;;
74260;Laerm;62630;55.874;37.516;2023-05-21T04:26:30;63.98;52.47;74.44;;
74260;Laerm;62630;55.874;37.516;2023-05-21T04:28:58;58.46;46.32;71.26;;
74260;Laerm;62630;55.874;37.516;2023-05-21T04:31:27;61.86;48.68;71.77;;
74260;Laerm;62630;55.874;37.516;2023-05-21T04:33:52;57.78;45.66;70.27;;
74260;Laerm;62630;55.874;37.516;2023-05-21T04:36:18;60.72;46.25;75.34;;
74260;Laerm;62630;55.874;37.516;2023-05-21T04:38:43;63.23;48.34;83.63;;
74260;Laerm;62630;55.874;37.516;2023-05-21T04:41:09;60.81;47.55;70.84;;
74260;Laerm;62630;55.874;37.516;2023-05-21T04:43:36;59.59;47.62;70.64;;
74260;Laerm;62630;55.874;37.516;2023-05-21T04:46:02;61.02;48.69;74.91;;
74260;Laerm;62630;55.874;37.516;2023-05-21T04:48:28;59.13;47.28;73.00;;
74260;Laerm;62630;55.874;37.516;2023-05-21T04:50:54;58.70;48.18;67.60;;
74260;Laerm;62630;55.874;37.516;2023-05-21T04:53:21;62.81;47.50;81.70;;
74260;Laerm;62630;55.874;37.516;2023-05-21T04:55:47;58.11;48.74;72.85;;
74260;Laerm;62630;55.874;37.516;2023-05-21T04:58:13;62.47;47.83;72.80;;
74260;Laerm;62630;55.874;37.516;2023-05-21T05:00:41;59.74;48.61;70.92;;
74260;Laerm;62630;55.874;37.516;2023-05-21T05:03:10;59.97;47.86;72.76;;
74260;Laerm;62630;55.874;37.516;2023-05-21T05:05:35;65.24;50.96;78.57;;
74260;Laerm;62630;55.874;37.516;2023-05-21T05:08:01;61.09;50.41;74.02;;
74260;Laerm;62630;55.874;37.516;2023-05-21T05:10:28;59.11;48.85;69.01;;
74260;Laerm;62630;55.874;37.516;2023-05-21T05:12:53;59.26;48.79;69.91;;
74260;Laerm;62630;55.874;37.516;2023-05-21T05:15:19;58.53;47.44;73.65;;
74260;Laerm;62630;55.874;37.516;2023-05-21T05:17:45;58.00;47.35;72.50;;
74260;Laerm;62630;55.874;37.516;2023-05-21T05:20:14;58.26;47.79;68.58;;
74260;Laerm;62630;55.874;37.516;2023-05-21T05:22:40;63.05;48.62;80.96;;
74260;Laerm;62630;55.874;37.516;2023-05-21T05:25:06;58.87;48.37;71.08;;
74260;Laerm;62630;55.874;37.516;2023-05-21T05:27:32;61.77;51.13;70.01;;
74260;Laerm;62630;55.874;37.516;2023-05-21T05:29:57;59.33;50.51;69.68;;
74260;Laerm;62630;55.874;37.516;2023-05-21T05:32:23;60.61;50.00;72.04;;
74260;Laerm;62630;55.874;37.516;2023-05-21T05:34:48;64.45;51.56;78.35;;
74260;Laerm;62630;55.874;37.516;2023-05-21T05:37:14;58.98;48.72;75.27;;
74260;Laerm;62630;55.874;37.516;2023-05-21T05:39:40;60.39;48.92;71.08;;
74260;Laerm;62630;55.874;37.516;2023-05-21T05:42:05;61.81;51.77;75.38;;
74260;Laerm;62630;55.874;37.516;2023-05-21T05:44:31;62.21;49.66;84.73;;
74260;Laerm;62630;55.874;37.516;2023-05-21T05:46:56;60.45;50.66;71.85;;
74260;Laerm;62630;55.874;37.516;2023-05-21T05:49:22;60.56;50.77;71.07;;
74260;Laerm;62630;55.874;37.516;2023-05-21T05:51:47;62.66;52.57;74.83;;
74260;Laerm;62630;55.874;37.516;2023-05-21T05:54:14;57.96;49.43;68.69;;
74260;Laerm;62630;55.874;37.516;2023-05-21T05:56:39;58.10;50.18;75.28;;
74260;Laerm;62630;55.874;37.516;2023-05-21T05:59:05;60.90;49.83;75.16;;
74260;Laerm;62630;55.874;37.516;2023-05-21T06:01:31;60.67;49.97;71.52;;
74260;Laerm;62630;55.874;37.516;2023-05-21T06:03:56;60.59;50.22;69.63;;
74260;Laerm;62630;55.874;37.516;2023-05-21T06:06:22;61.40;49.98;74.25;;
74260;Laerm;62630;55.874;37.516;2023-05-21T06:08:47;59.70;48.60;70.41;;
74260;Laerm;62630;55.874;37.516;2023-05-21T06:11:13;65.24;51.47;81.70;;
74260;Laerm;62630;55.874;37.516;2023-05-21T06:13:43;67.82;48.92;86.07;;
74260;Laerm;62630;55.874;37.516;2023-05-21T06:16:11;61.40;48.12;79.12;;
74260;Laerm;62630;55.874;37.516;2023-05-21T06:18:37;58.52;49.01;68.37;;
74260;Laerm;62630;55.874;37.516;2023-05-21T06:21:06;64.95;52.71;74.90;;
74260;Laerm;62630;55.874;37.516;2023-05-21T06:23:32;60.73;50.61;74.80;;
74260;Laerm;62630;55.874;37.516;2023-05-21T06:26:02;59.99;49.96;73.61;;
74260;Laerm;62630;55.874;37.516;2023-05-21T06:28:28;61.30;49.37;70.74;;
74260;Laerm;62630;55.874;37.516;2023-05-21T06:30:54;64.99;53.05;79.25;;
74260;Laerm;62630;55.874;37.516;2023-05-21T06:33:21;61.36;50.22;73.61;;
74260;Laerm;62630;55.874;37.516;2023-05-21T06:35:47;63.31;52.36;80.30;;
74260;Laerm;62630;55.874;37.516;2023-05-21T06:38:13;62.10;53.62;73.12;;
74260;Laerm;62630;55.874;37.516;2023-05-21T06:40:39;59.75;49.09;70.46;;
74260;Laerm;62630;55.874;37.516;2023-05-21T06:43:05;60.06;51.02;74.56;;
74260;Laerm;62630;55.874;37.516;2023-05-21T06:45:30;62.95;51.19;71.65;;
74260;Laerm;62630;55.874;37.516;2023-05-21T06:47:56;64.91;53.63;77.85;;
74260;Laerm;62630;55.874;37.516;2023-05-21T06:50:23;63.59;49.15;82.80;;
74260;Laerm;62630;55.874;37.516;2023-05-21T06:52:49;66.17;55.21;84.40;;
74260;Laerm;62630;55.874;37.516;2023-05-21T06:55:16;59.97;49.02;68.74;;
74260;Laerm;62630;55.874;37.516;2023-05-21T06:57:42;67.60;54.32;87.97;;
74260;Laerm;62630;55.874;37.516;2023-05-21T07:00:08;60.14;49.46;69.82;;
74260;Laerm;62630;55.874;37.516;2023-05-21T07:02:34;62.33;51.11;69.74;;
74260;Laerm;62630;55.874;37.516;2023-05-21T07:05:00;67.78;54.91;78.11;;
74260;Laerm;62630;55.874;37.516;2023-05-21T07:07:26;61.04;51.72;69.94;;
74260;Laerm;62630;55.874;37.516;2023-05-21T07:09:51;66.03;53.06;77.03;;
74260;Laerm;62630;55.874;37.516;2023-05-21T07:12:17;62.42;54.59;72.37;;
74260;Laerm;62630;55.874;37.516;2023-05-21T07:14:43;65.45;54.75;74.80;;
74260;Laerm;62630;55.874;37.516;2023-05-21T07:17:08;64.28;53.71;77.91;;
74260;Laerm;62630;55.874;37.516;2023-05-21T07:19:34;64.83;54.15;77.69;;
74260;Laerm;62630;55.874;37.516;2023-05-21T07:21:59;64.72;51.62;87.29;;
74260;Laerm;62630;55.874;37.516;2023-05-21T07:29:33;66.71;55.19;85.39;;
74260;Laerm;62630;55.874;37.516;2023-05-21T07:31:58;65.44;53.37;78.43;;
74260;Laerm;62630;55.874;37.516;2023-05-21T07:34:24;70.16;58.01;92.04;;
74260;Laerm;62630;55.874;37.516;2023-05-21T07:36:50;66.74;52.89;78.13;;
74260;Laerm;62630;55.874;37.516;2023-05-21T07:39:16;62.53;52.30;82.50;;
74260;Laerm;62630;55.874;37.516;2023-05-21T07:41:42;65.16;51.45;78.79;;
74260;Laerm;62630;55.874;37.516;2023-05-21T07:44:07;67.88;55.07;84.29;;
74260;Laerm;62630;55.874;37.516;2023-05-21T07:46:35;69.08;52.21;85.72;;
74260;Laerm;62630;55.874;37.516;2023-05-21T07:49:00;62.83;54.35;72.07;;
74260;Laerm;62630;55.874;37.516;2023-05-21T07:51:26;61.47;53.39;69.49;;
74260;Laerm;62630;55.874;37.516;2023-05-21T07:53:52;63.13;51.83;74.59;;
74260;Laerm;62630;55.874;37.516;2023-05-21T07:56:17;63.45;50.63;77.58;;
74260;Laerm;62630;55.874;37.516;2023-05-21T07:58:43;61.84;52.65;70.90;;
74260;Laerm;62630;55.874;37.516;2023-05-21T08:01:14;66.26;54.65;75.22;;
74260;Laerm;62630;55.874;37.516;2023-05-21T08:03:39;62.84;52.17;73.92;;
74260;Laerm;62630;55.874;37.516;2023-05-21T08:06:08;59.42;50.38;68.54;;
74260;Laerm;62630;55.874;37.516;2023-05-21T08:08:34;62.44;50.83;74.43;;
74260;Laerm;62630;55.874;37.516;2023-05-21T08:11:00;65.66;52.89;78.35;;
74260;Laerm;62630;55.874;37.516;2023-05-21T08:13:26;64.91;53.73;78.05;;
74260;Laerm;62630;55.874;37.516;2023-05-21T08:15:51;66.20;53.22;80.83;;
74260;Laerm;62630;55.874;37.516;2023-05-21T08:18:17;62.46;51.36;71.30;;
74260;Laerm;62630;55.874;37.516;2023-05-21T08:20:43;62.71;51.37;76.13;;
74260;Laerm;62630;55.874;37.516;2023-05-21T08:23:08;62.93;52.89;70.71;;
74260;Laerm;62630;55.874;37.516;2023-05-21T08:25:34;62.71;52.48;71.83;;
74260;Laerm;62630;55.874;37.516;2023-05-21T08:28:03;61.27;49.96;73.58;;
74260;Laerm;62630;55.874;37.516;2023-05-21T08:30:28;62.71;51.49;75.72;;
74260;Laerm;62630;55.874;37.516;2023-05-21T08:32:54;61.92;50.96;71.68;;
74260;Laerm;62630;55.874;37.516;2023-05-21T08:35:21;63.68;51.42;78.79;;
74260;Laerm;62630;55.874;37.516;2023-05-21T08:37:46;64.08;53.07;74.50;;
74260;Laerm;62630;55.874;37.516;2023-05-21T08:40:12;62.04;51.05;75.16;;
74260;Laerm;62630;55.874;37.516;2023-05-21T08:42:48;62.73;53.67;70.27;;
74260;Laerm;62630;55.874;37.516;2023-05-21T08:45:21;63.14;54.49;73.80;;
74260;Laerm;62630;55.874;37.516;2023-05-21T08:47:54;66.24;52.14;92.41;;
74260;Laerm;62630;55.874;37.516;2023-05-21T08:50:20;61.43;51.57;73.84;;
74260;Laerm;62630;55.874;37.516;2023-05-21T08:52:47;66.53;54.16;82.35;;
74260;Laerm;62630;55.874;37.516;2023-05-21T08:55:14;67.45;53.75;86.88;;
74260;Laerm;62630;55.874;37.516;2023-05-21T08:57:42;62.11;48.48;74.18;;
74260;Laerm;62630;55.874;37.516;2023-05-21T09:00:09;63.66;50.99;82.76;;
74260;Laerm;62630;55.874;37.516;2023-05-21T09:02:37;63.77;52.96;72.84;;
74260;Laerm;62630;55.874;37.516;2023-05-21T09:05:05;62.53;54.07;70.63;;
74260;Laerm;62630;55.874;37.516;2023-05-21T09:07:58;63.02;53.92;69.35;;
74260;Laerm;62630;55.874;37.516;2023-05-21T09:10:41;62.57;53.66;70.77;;
74260;Laerm;62630;55.874;37.516;2023-05-21T09:13:12;63.98;50.83;75.28;;
74260;Laerm;62630;55.874;37.516;2023-05-21T09:15:38;67.13;53.52;83.06;;
74260;Laerm;62630;55.874;37.516;2023-05-21T09:18:05;63.38;51.11;72.69;;
74260;Laerm;62630;55.874;37.516;2023-05-21T09:20:33;64.17;55.16;70.56;;
74260;Laerm;62630;55.874;37.516;2023-05-21T09:23:03;64.47;52.27;75.58;;
74260;Laerm;62630;55.874;37.516;2023-05-21T09:25:29;63.62;54.79;70.83;;
74260;Laerm;62630;55.874;37.516;2023-05-21T09:27:55;62.20;51.68;70.30;;
74260;Laerm;62630;55.874;37.516;2023-05-21T09:30:27;66.04;53.86;92.60;;
74260;Laerm;62630;55.874;37.516;2023-05-21T09:32:58;63.98;53.81;77.25;;
74260;Laerm;62630;55.874;37.516;2023-05-21T09:35:24;62.69;54.41;71.68;;
74260;Laerm;62630;55.874;37.516;2023-05-21T09:37:51;64.22;53.91;77.00;;
74260;Laerm;62630;55.874;37.516;2023-05-21T09:40:19;61.52;51.16;71.97;;
74260;Laerm;62630;55.874;37.516;2023-05-21T09:42:48;62.69;54.47;79.21;;
74260;Laerm;62630;55.874;37.516;2023-05-21T09:45:26;63.65;53.54;73.23;;
74260;Laerm;62630;55.874;37.516;2023-05-21T09:47:54;62.65;52.18;75.14;;
74260;Laerm;62630;55.874;37.516;2023-05-21T09:50:25;65.07;51.79;80.47;;
74260;Laerm;62630;55.874;37.516;2023-05-21T09:52:54;63.42;55.89;78.29;;
74260;Laerm;62630;55.874;37.516;2023-05-21T09:55:25;62.36;52.78;71.80;;
74260;Laerm;62630;55.874;37.516;2023-05-21T09:57:51;61.66;50.35;70.97;;
74260;Laerm;62630;55.874;37.516;2023-05-21T10:00:24;62.32;51.26;73.93;;
74260;Laerm;62630;55.874;37.516;2023-05-21T10:02:56;65.07;55.93;72.92;;
74260;Laerm;62630;55.874;37.516;2023-05-21T10:05:29;64.37;53.21;75.72;;
74260;Laerm;62630;55.874;37.516;2023-05-21T10:08:02;64.95;51.99;79.02;;
74260;Laerm;62630;55.874;37.516;2023-05-21T10:10:30;63.85;52.17;74.31;;
74260;Laerm;62630;55.874;37.516;2023-05-21T10:13:08;69.46;54.34;83.30;;
74260;Laerm;62630;55.874;37.516;2023-05-21T10:15:50;67.04;51.86;92.68;;
74260;Laerm;62630;55.874;37.516;2023-05-21T10:18:17;62.44;52.78;73.69;;
74260;Laerm;62630;55.874;37.516;2023-05-21T10:20:45;62.08;53.46;72.04;;
74260;Laerm;62630;55.874;37.516;2023-05-21T10:23:11;61.02;51.40;70.22;;
74260;Laerm;62630;55.874;37.516;2023-05-21T10:25:37;65.05;53.86;74.59;;
74260;Laerm;62630;55.874;37.516;2023-05-21T10:28:05;61.90;51.22;78.97;;
74260;Laerm;62630;55.874;37.516;2023-05-21T10:30:33;70.40;52.93;96.10;;
74260;Laerm;62630;55.874;37.516;2023-05-21T10:33:00;67.45;55.37;89.05;;
74260;Laerm;62630;55.874;37.516;2023-05-21T10:35:32;62.23;51.18;71.04;;
74260;Laerm;62630;55.874;37.516;2023-05-21T10:37:58;62.53;52.11;69.59;;
74260;Laerm;62630;55.874;37.516;2023-05-21T10:40:28;64.34;53.55;77.10;;
74260;Laerm;62630;55.874;37.516;2023-05-21T10:43:19;64.16;52.68;75.86;;
74260;Laerm;62630;55.874;37.516;2023-05-21T10:46:05;65.02;55.14;81.88;;
74260;Laerm;62630;55.874;37.516;2023-05-21T10:51:34;63.40;53.35;73.05;;
74260;Laerm;62630;55.874;37.516;2023-05-21T10:54:18;61.52;51.85;72.31;;
74260;Laerm;62630;55.874;37.516;2023-05-21T10:59:47;62.37;52.65;80.17;;
74260;Laerm;62630;55.874;37.516;2023-05-21T11:02:14;64.48;53.79;76.92;;
74260;Laerm;62630;55.874;37.516;2023-05-21T11:04:47;62.15;52.13;73.18;;
74260;Laerm;62630;55.874;37.516;2023-05-21T11:07:22;64.63;55.17;76.97;;
74260;Laerm;62630;55.874;37.516;2023-05-21T11:09:49;60.66;51.56;69.78;;
74260;Laerm;62630;55.874;37.516;2023-05-21T11:12:15;63.63;55.31;73.31;;
74260;Laerm;62630;55.874;37.516;2023-05-21T11:14:55;62.99;52.57;70.50;;
74260;Laerm;62630;55.874;37.516;2023-05-21T11:17:40;62.65;53.80;71.18;;
74260;Laerm;62630;55.874;37.516;2023-05-21T11:20:12;63.59;51.73;71.07;;
74260;Laerm;62630;55.874;37.516;2023-05-21T11:22:43;61.02;51.89;68.73;;
74260;Laerm;62630;55.874;37.516;2023-05-21T11:25:14;62.18;52.12;70.23;;
74260;Laerm;62630;55.874;37.516;2023-05-21T11:27:40;64.60;52.19;85.40;;
74260;Laerm;62630;55.874;37.516;2023-05-21T11:30:08;67.86;54.07;81.95;;
74260;Laerm;62630;55.874;37.516;2023-05-21T11:32:38;62.94;51.65;74.33;;
74260;Laerm;62630;55.874;37.516;2023-05-21T11:35:06;64.27;51.42;76.53;;
74260;Laerm;62630;55.874;37.516;2023-05-21T11:37:33;62.05;51.35;71.41;;
74260;Laerm;62630;55.874;37.516;2023-05-21T11:40:22;63.77;53.12;72.50;;
74260;Laerm;62630;55.874;37.516;2023-05-21T11:42:54;62.59;51.53;70.32;;
74260;Laerm;62630;55.874;37.516;2023-05-21T11:45:22;62.91;52.67;74.82;;
74260;Laerm;62630;55.874;37.516;2023-05-21T11:47:50;62.86;54.56;74.97;;
74260;Laerm;62630;55.874;37.516;2023-05-21T11:50:17;63.95;54.47;74.41;;
74260;Laerm;62630;55.874;37.516;2023-05-21T11:52:43;63.03;52.39;76.70;;
74260;Laerm;62630;55.874;37.516;2023-05-21T11:55:14;63.70;56.20;75.02;;
74260;Laerm;62630;55.874;37.516;2023-05-21T11:57:42;71.22;55.45;91.11;;
74260;Laerm;62630;55.874;37.516;2023-05-21T12:00:14;63.82;53.85;74.44;;
74260;Laerm;62630;55.874;37.516;2023-05-21T12:02:45;64.84;57.18;74.39;;
74260;Laerm;62630;55.874;37.516;2023-05-21T12:05:11;64.18;53.05;76.29;;
74260;Laerm;62630;55.874;37.516;2023-05-21T12:07:39;65.04;53.06;76.02;;
74260;Laerm;62630;55.874;37.516;2023-05-21T12:10:07;64.31;55.05;76.11;;
74260;Laerm;62630;55.874;37.516;2023-05-21T12:12:35;64.19;56.11;76.72;;
74260;Laerm;62630;55.874;37.516;2023-05-21T12:15:02;61.67;52.39;70.47;;
74260;Laerm;62630;55.874;37.516;2023-05-21T12:17:29;64.63;54.24;75.51;;
74260;Laerm;62630;55.874;37.516;2023-05-21T12:19:56;61.48;53.31;77.66;;
74260;Laerm;62630;55.874;37.516;2023-05-21T12:22:25;62.03;53.17;70.18;;
74260;Laerm;62630;55.874;37.516;2023-05-21T12:24:53;61.97;52.93;81.50;;
74260;Laerm;62630;55.874;37.516;2023-05-21T12:27:20;60.76;52.28;68.21;;
74260;Laerm;62630;55.874;37.516;2023-05-21T12:29:48;66.56;53.09;80.36;;
74260;Laerm;62630;55.874;37.516;2023-05-21T12:32:14;66.76;54.90;80.17;;
74260;Laerm;62630;55.874;37.516;2023-05-21T12:34:48;65.18;54.42;76.93;;
74260;Laerm;62630;55.874;37.516;2023-05-21T12:37:21;63.68;55.77;73.79;;
74260;Laerm;62630;55.874;37.516;2023-05-21T12:39:57;65.31;55.68;74.53;;
74260;Laerm;62630;55.874;37.516;2023-05-21T12:42:30;61.35;53.85;70.48;;
74260;Laerm;62630;55.874;37.516;2023-05-21T12:45:00;64.15;52.84;76.92;;
74260;Laerm;62630;55.874;37.516;2023-05-21T12:47:26;63.55;52.39;74.52;;
74260;Laerm;62630;55.874;37.516;2023-05-21T12:49:55;64.41;55.25;76.92;;
74260;Laerm;62630;55.874;37.516;2023-05-21T12:52:22;64.59;52.81;74.25;;
74260;Laerm;62630;55.874;37.516;2023-05-21T12:54:50;63.76;53.28;75.09;;
74260;Laerm;62630;55.874;37.516;2023-05-21T12:57:18;61.51;53.86;68.79;;
74260;Laerm;62630;55.874;37.516;2023-05-21T12:59:58;62.97;56.33;69.95;;
74260;Laerm;62630;55.874;37.516;2023-05-21T13:02:30;69.62;55.55;84.47;;
74260;Laerm;62630;55.874;37.516;2023-05-21T13:05:01;63.47;53.32;74.68;;
74260;Laerm;62630;55.874;37.516;2023-05-21T13:07:34;63.44;52.25;75.18;;
74260;Laerm;62630;55.874;37.516;2023-05-21T13:10:02;63.35;53.57;75.41;;
74260;Laerm;62630;55.874;37.516;2023-05-21T13:12:29;62.47;52.20;71.12;;
74260;Laerm;62630;55.874;37.516;2023-05-21T13:14:57;62.58;52.08;71.01;;
74260;Laerm;62630;55.874;37.516;2023-05-21T13:17:24;64.83;55.06;85.47;;
74260;Laerm;62630;55.874;37.516;2023-05-21T13:20:09;63.52;52.12;84.23;;
74260;Laerm;62630;55.874;37.516;2023-05-21T13:22:46;64.60;53.44;73.52;;
74260;Laerm;62630;55.874;37.516;2023-05-21T13:25:15;64.43;55.00;74.79;;
74260;Laerm;62630;55.874;37.516;2023-05-21T13:27:44;63.98;55.40;76.60;;
74260;Laerm;62630;55.874;37.516;2023-05-21T13:30:09;63.53;54.75;76.73;;
74260;Laerm;62630;55.874;37.516;2023-05-21T13:32:41;64.30;52.76;73.67;;
74260;Laerm;62630;55.874;37.516;2023-05-21T13:35:07;63.38;52.03;72.39;;
74260;Laerm;62630;55.874;37.516;2023-05-21T13:37:34;59.91;50.58;71.17;;
74260;Laerm;62630;55.874;37.516;2023-05-21T13:40:04;61.43;51.61;71.26;;
74260;Laerm;62630;55.874;37.516;2023-05-21T13:42:32;71.11;52.38;88.08;;
74260;Laerm;62630;55.874;37.516;2023-05-21T13:44:59;69.30;54.70;88.40;;
74260;Laerm;62630;55.874;37.516;2023-05-21T13:47:25;62.87;55.62;80.51;;